Huvudsida
METAR-TAF:

METAR-TAF

Flygplatser :

Chambéry / Aix-les-Bains, Frankrike

latitud: 45-39N, longitud: 005-53E, höjd: 235 m

Aktuellt väderrapport

Denna rapport gjordes för 38 minuter sedan, klockan 13:30 UTC
Vind 5 kt från nord/nordväst, varierande mellan väst/nordväst och nord
Temperatur 30°C
Fuktighet 46%
Tryck 1016 hPa
Sikt 10 km eller mer
Inga moln under 1 500 m eller inga cumulonimbus

METAR: LFLB 241330Z AUTO 33005KT 300V010 CAVOK 30/17 Q1016 NOSIG

Tid: 16:08 (14:08 UTC)

Väderprognos

Denna rapport gjordes för 3 timmar och 8 minuter sedan, klockan 11:00 UTC
Prognos gäller från 24 kl. 12 UTC till 25 kl. 12 UTC
Vind 2 kt från nord
Sikt 10 km eller mer
Inga moln under 1 500 m eller inga cumulonimbus

TAF: LFLB 241100Z 2412/2512 36002KT CAVOK

Aktuella väderrapporter och prognoser från 4000 flygplatser (METAR- och TAF-rapporter).

De tillgängliga stationerna syns som gula och röda prickar på kartan.

För musen över prickarna för att se namnen på stationerna.

Klicka sedan för att få väderrapporter och prognoser.

För att ändra kartan: Klicka på de gröna knapparna med ett svart kors på för att zooma in; den gröna knappen med ett streck på för att zooma ut; eller på de gröna pilarna för angränsande kartor.


METAR-TAF: